Aeroporto :
LOGIN :

Iscrizione | Disclaimer

   EN    FR    IT 

 










Sommario :    VFR   VFR Marginale   IFR   IFR Intensivo   IFR Molto Intensivo
Visibilità : 
Base nubi : 
>= 8 km
>= 3000ft
5 / 8 km
1000 / 3000 ft
1500m / 5 km
500 / 1000 ft
800 / 1500m
200 / 500 ft
< 800m
< 200 ft
Simboli :   Temporali  Nebbia  Neve Forte  Precipitazioni Forti  Vento > 20 kt
SIGMETs :   Varie  Temporali  Ghiacco  Turbolenza  Onda orograficha  Ceneri Vulcaniche







- Altitudine del aeroporto : 322 ft


LHSN - Szolnok

ULTIMO METAR :
  • 161615Z 29008KT 250V320 CAVOK 26/07 Q1010 NOSIG RMK BLU

METARs OBSOLETI :
  • 161545Z 26006KT 220V300 CAVOK 27/08 Q1010 NOSIG RMK BLU
  • 161515Z 27004KT CAVOK 27/08 Q1011 NOSIG RMK BLU
  • 161445Z 28008KT 240V320 CAVOK 27/07 Q1011 NOSIG RMK BLU
  • 161415Z 05004KT CAVOK 27/07 Q1011 NOSIG RMK BLU
  • 161345Z 27008KT CAVOK 27/08 Q1011 NOSIG RMK BLU

TAF TAF LHSN
Valido dal 16 a 15 ore il 17 a 00 ore UTC


161415Z 1615/1624 27005KT CAVOK
TEMPO 1615/1618 31008KT
Nessun NOTAM noto per questo aeroporto.



MetMap, La meteo Aeronautica in un colpo d'occhio ! - Copyright ORBIFLY Dicembre 2007 - Disclaimer

ORBIFLY MET'MAP TEAM :

Programmazione e sviluppo : Alexandra Zaïnal
Concezione e sviluppo : Baudouin d'Aumeries
Co-Programmazione e sviluppo : Marc-Olivier Méhu
Supporto tecnico e logistico : Manuel Goepfert
Aiuto per la traduzione : Arnaldo La Scala

Contatto : metmap@orbifly.com




FONTI E CREDITI :

   NOAA